Time;durP1;ratioP1;P1;durP2;ratioP2;P2;SDS_P1;SDS_P2;PMS_P1;PMS_P2;Temp;Humidity;BMP_temperature;BMP_pressure;BME280_temperature;BME280_humidity;BME280_pressure;Samples;Min_cycle;Max_cycle;Signal;HPM_P1;HPM_P2
2021/11/25 00:00:12;;;;;;;3.22;1.00;;;;;;;;;;5006246;28;20429;-39
2021/11/25 00:02:39;;;;;;;3.88;1.73;;;;;;;;;;5007531;28;20037;-40
2021/11/25 00:05:08;;;;;;;7.88;1.60;;;;;;;;;;5005224;28;20030;-42
2021/11/25 00:07:35;;;;;;;3.88;1.55;;;;;;;;;;5006310;28;20037;-40
2021/11/25 00:10:02;;;;;;;3.38;1.20;;;;;;;;;;5007868;28;20414;-40
2021/11/25 00:12:30;;;;;;;5.65;1.33;;;;;;;;;;4997376;28;20019;-38
2021/11/25 00:14:57;;;;;;;2.58;0.95;;;;;;;;;;5005650;28;20022;-38
2021/11/25 00:17:26;;;;;;;4.15;0.93;;;;;;;;;;5007605;28;20046;-41
2021/11/25 00:19:54;;;;;;;3.67;0.70;;;;;;;;;;5010586;28;20018;-40
2021/11/25 00:22:22;;;;;;;2.30;0.70;;;;;;;;;;5008551;28;20029;-40
2021/11/25 00:24:49;;;;;;;4.18;0.90;;;;;;;;;;5012164;28;20599;-40
2021/11/25 00:27:16;;;;;;;4.40;1.20;;;;;;;;;;5011044;28;20049;-41
2021/11/25 00:29:43;;;;;;;3.72;0.73;;;;;;;;;;5010108;28;20397;-41
2021/11/25 00:32:10;;;;;;;2.67;0.90;;;;;;;;;;5011588;28;20114;-42
2021/11/25 00:34:37;;;;;;;2.92;1.27;;;;;;;;;;5005238;28;20025;-40
2021/11/25 00:37:04;;;;;;;5.22;1.20;;;;;;;;;;5010024;28;20034;-42
2021/11/25 00:39:31;;;;;;;5.00;1.20;;;;;;;;;;5010225;28;20036;-43
2021/11/25 00:42:01;;;;;;;5.07;0.93;;;;;;;;;;5007962;28;20080;-45
2021/11/25 00:44:28;;;;;;;8.65;1.75;;;;;;;;;;5001298;28;20129;-39
2021/11/25 00:46:55;;;;;;;5.82;1.30;;;;;;;;;;5012075;28;20026;-40
2021/11/25 00:49:22;;;;;;;7.28;1.52;;;;;;;;;;5012649;28;20092;-40
2021/11/25 00:51:49;;;;;;;6.65;1.77;;;;;;;;;;5012133;28;20105;-43
2021/11/25 00:54:16;;;;;;;7.97;3.10;;;;;;;;;;5010884;28;20101;-39
2021/11/25 00:56:43;;;;;;;8.93;3.30;;;;;;;;;;5011528;28;20382;-41
2021/11/25 00:59:11;;;;;;;9.48;4.53;;;;;;;;;;5011176;28;20389;-40
2021/11/25 01:01:38;;;;;;;18.17;5.30;;;;;;;;;;5012746;28;20010;-39
2021/11/25 01:04:05;;;;;;;10.70;3.80;;;;;;;;;;5011169;28;20374;-39
2021/11/25 01:06:32;;;;;;;15.45;4.95;;;;;;;;;;5009458;28;20042;-44
2021/11/25 01:08:59;;;;;;;18.33;5.28;;;;;;;;;;5011763;28;20033;-39
2021/11/25 01:11:26;;;;;;;15.32;4.20;;;;;;;;;;5012759;28;20029;-39
2021/11/25 01:13:54;;;;;;;14.02;3.55;;;;;;;;;;5009390;28;20121;-36
2021/11/25 01:16:22;;;;;;;11.50;2.85;;;;;;;;;;5012141;28;20030;-38
2021/11/25 01:18:50;;;;;;;13.20;4.00;;;;;;;;;;5009011;28;20026;-36
2021/11/25 01:21:17;;;;;;;12.70;3.40;;;;;;;;;;5009889;28;20046;-37
2021/11/25 01:23:44;;;;;;;10.85;3.25;;;;;;;;;;5005975;28;20030;-40
2021/11/25 01:26:11;;;;;;;10.93;2.72;;;;;;;;;;5011515;28;20493;-40
2021/11/25 01:28:38;;;;;;;7.40;2.47;;;;;;;;;;5002967;28;20041;-39
2021/11/25 01:31:05;;;;;;;9.68;2.97;;;;;;;;;;5012704;28;20394;-36
2021/11/25 01:33:33;;;;;;;8.43;2.45;;;;;;;;;;5010889;28;20026;-38
2021/11/25 01:36:00;;;;;;;14.30;2.67;;;;;;;;;;5006524;28;20030;-41
2021/11/25 01:38:28;;;;;;;9.93;2.85;;;;;;;;;;5011690;28;20495;-41
2021/11/25 01:40:55;;;;;;;6.20;2.30;;;;;;;;;;5008702;28;20057;-40
2021/11/25 01:43:25;;;;;;;5.47;2.20;;;;;;;;;;5001679;28;20030;-40
2021/11/25 01:45:52;;;;;;;5.60;2.17;;;;;;;;;;5011056;28;20049;-40
2021/11/25 01:48:20;;;;;;;17.40;2.55;;;;;;;;;;5002078;28;20116;-39
2021/11/25 01:50:49;;;;;;;6.53;2.15;;;;;;;;;;5006978;28;20053;-40
2021/11/25 01:53:17;;;;;;;6.65;2.08;;;;;;;;;;5006850;28;20034;-40
2021/11/25 01:55:44;;;;;;;3.75;1.80;;;;;;;;;;5011624;28;20512;-40
2021/11/25 01:58:11;;;;;;;4.80;2.15;;;;;;;;;;5005594;28;20034;-40
2021/11/25 02:00:38;;;;;;;7.47;2.30;;;;;;;;;;5007427;28;20524;-41
2021/11/25 02:03:06;;;;;;;10.00;2.20;;;;;;;;;;5010103;28;20105;-40
2021/11/25 02:05:33;;;;;;;7.70;2.20;;;;;;;;;;5009194;28;20068;-39
2021/11/25 02:08:00;;;;;;;8.15;2.25;;;;;;;;;;5007766;28;20101;-41
2021/11/25 02:10:27;;;;;;;9.23;2.03;;;;;;;;;;5010659;28;20026;-40
2021/11/25 02:12:54;;;;;;;9.82;1.20;;;;;;;;;;5007356;28;20506;-40
2021/11/25 02:15:21;;;;;;;3.30;1.08;;;;;;;;;;5004682;28;20037;-39
2021/11/25 02:17:49;;;;;;;3.63;1.10;;;;;;;;;;5005828;28;20540;-40
2021/11/25 02:20:16;;;;;;;3.20;1.05;;;;;;;;;;5007945;28;20107;-39
2021/11/25 02:22:44;;;;;;;7.50;0.90;;;;;;;;;;5007423;28;20036;-40
2021/11/25 02:25:12;;;;;;;3.17;0.98;;;;;;;;;;5006707;28;20018;-40
2021/11/25 02:27:39;;;;;;;4.43;0.85;;;;;;;;;;5008039;28;20044;-39
2021/11/25 02:30:07;;;;;;;2.67;0.88;;;;;;;;;;5002059;28;20033;-41
2021/11/25 02:32:37;;;;;;;2.22;0.60;;;;;;;;;;5007594;28;20027;-39
2021/11/25 02:35:11;;;;;;;2.70;0.60;;;;;;;;;;5006379;28;20608;-41
2021/11/25 02:37:37;;;;;;;5.95;1.00;;;;;;;;;;5002252;28;21223;-42
2021/11/25 02:40:17;;;;;;;4.93;0.70;;;;;;;;;;5007422;28;20022;-41
2021/11/25 02:42:45;;;;;;;3.53;0.90;;;;;;;;;;5008738;28;20022;-39
2021/11/25 02:45:13;;;;;;;4.40;0.70;;;;;;;;;;5006101;28;20025;-40
2021/11/25 02:47:40;;;;;;;2.33;0.68;;;;;;;;;;5009337;28;20022;-37
2021/11/25 02:50:07;;;;;;;2.38;0.55;;;;;;;;;;5009243;28;20449;-37
2021/11/25 02:52:39;;;;;;;2.55;0.50;;;;;;;;;;5008098;28;20026;-41
2021/11/25 02:55:06;;;;;;;2.85;0.52;;;;;;;;;;5009768;28;20022;-39
2021/11/25 02:57:38;;;;;;;3.00;0.50;;;;;;;;;;5007082;28;20030;-40
2021/11/25 03:00:07;;;;;;;1.90;0.60;;;;;;;;;;5005384;28;20543;-41
2021/11/25 03:02:34;;;;;;;4.10;0.40;;;;;;;;;;5006973;28;20040;-41
2021/11/25 03:05:01;;;;;;;3.97;0.65;;;;;;;;;;5009806;28;20014;-40
2021/11/25 03:07:28;;;;;;;1.20;0.50;;;;;;;;;;5009042;28;20030;-40
2021/11/25 03:09:55;;;;;;;2.17;0.52;;;;;;;;;;5008970;28;20101;-40
2021/11/25 03:12:22;;;;;;;1.20;0.57;;;;;;;;;;5007481;28;20022;-41
2021/11/25 03:14:51;;;;;;;3.80;0.75;;;;;;;;;;5007383;28;20085;-42
2021/11/25 03:17:19;;;;;;;1.60;0.60;;;;;;;;;;5008183;28;20140;-40
2021/11/25 03:19:46;;;;;;;6.50;0.77;;;;;;;;;;5007830;28;20022;-40
2021/11/25 03:22:13;;;;;;;3.53;0.70;;;;;;;;;;5008197;28;20404;-41
2021/11/25 03:24:40;;;;;;;2.20;0.68;;;;;;;;;;5007049;28;20030;-40
2021/11/25 03:27:07;;;;;;;2.67;0.63;;;;;;;;;;5008346;28;20025;-39
2021/11/25 03:29:34;;;;;;;3.65;1.00;;;;;;;;;;5005558;28;20477;-38
2021/11/25 03:32:01;;;;;;;3.75;0.73;;;;;;;;;;5009925;28;20076;-38
2021/11/25 03:34:28;;;;;;;3.70;0.82;;;;;;;;;;5009551;28;20017;-39
2021/11/25 03:36:55;;;;;;;2.38;0.60;;;;;;;;;;5008524;28;20034;-39
2021/11/25 03:39:22;;;;;;;2.25;0.77;;;;;;;;;;5009331;28;20026;-38
2021/11/25 03:41:49;;;;;;;2.17;0.60;;;;;;;;;;5009690;28;20022;-39
2021/11/25 03:44:16;;;;;;;3.50;0.75;;;;;;;;;;5009137;28;20088;-37
2021/11/25 03:46:43;;;;;;;1.70;0.60;;;;;;;;;;5008918;28;20060;-38
2021/11/25 03:49:10;;;;;;;4.53;0.70;;;;;;;;;;5008393;28;20034;-39
2021/11/25 03:51:37;;;;;;;3.22;0.70;;;;;;;;;;5008599;28;20037;-37
2021/11/25 03:54:05;;;;;;;2.10;0.50;;;;;;;;;;5012272;28;20094;-39
2021/11/25 03:56:32;;;;;;;4.70;0.70;;;;;;;;;;5012229;28;20112;-38
2021/11/25 03:58:59;;;;;;;4.15;0.70;;;;;;;;;;5011232;28;20108;-38
2021/11/25 04:01:26;;;;;;;2.05;0.50;;;;;;;;;;5012344;28;20026;-38
2021/11/25 04:03:53;;;;;;;5.20;0.60;;;;;;;;;;5012835;28;20116;-38
2021/11/25 04:06:20;;;;;;;4.35;0.77;;;;;;;;;;5012186;28;20054;-39
2021/11/25 04:08:47;;;;;;;7.57;1.10;;;;;;;;;;5012639;28;20026;-39
2021/11/25 04:11:14;;;;;;;4.30;0.80;;;;;;;;;;5013661;28;20034;-39
2021/11/25 04:13:41;;;;;;;3.42;0.80;;;;;;;;;;5014014;28;20363;-39
2021/11/25 04:16:08;;;;;;;3.17;0.70;;;;;;;;;;5012575;28;20038;-38
2021/11/25 04:18:35;;;;;;;3.63;0.70;;;;;;;;;;5013947;28;20124;-39
2021/11/25 04:21:02;;;;;;;5.20;0.80;;;;;;;;;;5013742;28;20089;-39
2021/11/25 04:23:29;;;;;;;4.60;0.70;;;;;;;;;;5014433;28;20119;-39
2021/11/25 04:25:56;;;;;;;4.97;0.80;;;;;;;;;;5013408;28;20093;-40
2021/11/25 04:28:23;;;;;;;4.07;0.77;;;;;;;;;;5013640;28;20030;-40
2021/11/25 04:35:27;;;;;;;4.70;1.00;;;;;;;;;;5013684;28;20033;-39
2021/11/25 04:36:21;;;;;;;4.22;1.38;;;;;;;;;;5012587;28;20084;-39
2021/11/25 04:38:48;;;;;;;4.43;0.75;;;;;;;;;;5013905;28;20046;-39
2021/11/25 04:41:15;;;;;;;3.42;1.48;;;;;;;;;;5014102;28;20108;-39
2021/11/25 04:43:42;;;;;;;2.63;0.70;;;;;;;;;;5014027;28;20024;-40
2021/11/25 04:46:10;;;;;;;3.60;0.75;;;;;;;;;;5014396;28;20034;-40
2021/11/25 04:48:37;;;;;;;1.58;0.70;;;;;;;;;;5013069;28;20032;-39
2021/11/25 04:51:06;;;;;;;4.45;0.77;;;;;;;;;;5014286;28;20073;-39
2021/11/25 04:53:33;;;;;;;2.40;0.60;;;;;;;;;;5012439;28;20088;-39
2021/11/25 04:56:00;;;;;;;5.32;0.95;;;;;;;;;;5014424;28;20112;-40
2021/11/25 04:58:27;;;;;;;3.60;1.02;;;;;;;;;;5012821;28;20026;-40
2021/11/25 05:00:54;;;;;;;5.93;0.85;;;;;;;;;;5013758;28;20022;-40
2021/11/25 05:03:21;;;;;;;4.93;0.98;;;;;;;;;;5013212;28;20036;-40
2021/11/25 05:05:48;;;;;;;6.65;1.27;;;;;;;;;;5013269;28;20045;-40
2021/11/25 05:08:15;;;;;;;6.65;0.95;;;;;;;;;;5013229;28;20036;-40
2021/11/25 05:10:42;;;;;;;2.70;0.57;;;;;;;;;;5014133;28;20092;-40
2021/11/25 05:13:09;;;;;;;3.22;0.90;;;;;;;;;;5013494;28;20033;-39
2021/11/25 05:15:36;;;;;;;4.53;0.98;;;;;;;;;;5013795;28;20033;-39
2021/11/25 05:18:03;;;;;;;6.40;1.20;;;;;;;;;;5012506;28;20038;-40
2021/11/25 05:20:30;;;;;;;2.42;0.70;;;;;;;;;;5012744;28;20022;-39
2021/11/25 05:22:57;;;;;;;4.25;0.65;;;;;;;;;;5013323;28;20025;-39
2021/11/25 05:25:25;;;;;;;7.25;1.00;;;;;;;;;;5013935;28;20026;-39
2021/11/25 05:27:52;;;;;;;2.58;0.80;;;;;;;;;;5012623;28;20101;-39
2021/11/25 05:30:19;;;;;;;3.42;0.65;;;;;;;;;;5012477;28;20018;-39
2021/11/25 05:32:47;;;;;;;4.05;0.77;;;;;;;;;;5012943;28;20021;-39
2021/11/25 05:35:15;;;;;;;3.10;1.02;;;;;;;;;;5012668;28;20041;-39
2021/11/25 05:37:43;;;;;;;3.35;1.02;;;;;;;;;;5011859;28;20102;-39
2021/11/25 05:40:11;;;;;;;6.25;1.13;;;;;;;;;;5012014;28;20033;-39
2021/11/25 05:42:38;;;;;;;3.17;0.90;;;;;;;;;;5012267;28;20022;-39
2021/11/25 05:45:06;;;;;;;4.25;1.00;;;;;;;;;;5012264;28;20026;-39
2021/11/25 05:47:35;;;;;;;5.22;1.00;;;;;;;;;;5012686;28;20029;-39
2021/11/25 05:50:12;;;;;;;2.58;0.60;;;;;;;;;;5011417;28;20055;-38
2021/11/25 05:52:39;;;;;;;4.35;1.05;;;;;;;;;;5012584;28;20026;-39
2021/11/25 05:55:07;;;;;;;3.45;1.00;;;;;;;;;;5011842;28;20089;-39
2021/11/25 05:57:35;;;;;;;2.50;0.88;;;;;;;;;;5011977;28;20512;-39
2021/11/25 06:00:02;;;;;;;2.80;0.82;;;;;;;;;;5011228;28;20018;-39
2021/11/25 06:02:29;;;;;;;2.80;0.70;;;;;;;;;;5012313;28;20022;-39
2021/11/25 06:04:56;;;;;;;3.53;0.75;;;;;;;;;;5011689;28;20059;-39
2021/11/25 06:07:23;;;;;;;3.08;1.10;;;;;;;;;;5011643;28;20033;-39
2021/11/25 06:09:49;;;;;;;3.22;0.85;;;;;;;;;;5009344;28;20097;-40
2021/11/25 06:12:17;;;;;;;2.58;0.88;;;;;;;;;;5010692;28;20060;-39
2021/11/25 06:14:44;;;;;;;5.13;0.73;;;;;;;;;;5009463;28;20112;-39
2021/11/25 06:17:11;;;;;;;3.28;0.77;;;;;;;;;;5010822;28;20161;-40
2021/11/25 06:19:38;;;;;;;2.38;0.80;;;;;;;;;;5011014;28;20502;-39
2021/11/25 06:22:05;;;;;;;2.72;0.80;;;;;;;;;;5011159;28;20080;-40
2021/11/25 06:24:32;;;;;;;2.25;0.82;;;;;;;;;;5011188;28;20585;-39
2021/11/25 06:26:59;;;;;;;2.28;0.63;;;;;;;;;;5010798;28;20025;-42
2021/11/25 06:29:26;;;;;;;3.42;1.00;;;;;;;;;;5010266;28;20041;-40
2021/11/25 06:31:53;;;;;;;2.72;0.70;;;;;;;;;;5011084;28;20041;-39
2021/11/25 06:34:20;;;;;;;6.10;0.77;;;;;;;;;;5009145;28;20048;-39
2021/11/25 06:36:47;;;;;;;3.67;0.95;;;;;;;;;;5010486;28;20113;-40
2021/11/25 06:39:13;;;;;;;2.53;0.63;;;;;;;;;;5010124;28;20418;-40
2021/11/25 06:41:41;;;;;;;4.47;1.00;;;;;;;;;;5011351;28;20036;-40
2021/11/25 06:44:08;;;;;;;5.18;0.90;;;;;;;;;;5011866;28;20449;-40
2021/11/25 06:46:35;;;;;;;2.80;0.98;;;;;;;;;;5011468;28;20052;-40
2021/11/25 06:49:03;;;;;;;6.93;0.95;;;;;;;;;;5178062;22;20373;-41
2021/11/25 06:51:30;;;;;;;4.10;1.00;;;;;;;;;;5006698;28;20060;-40
2021/11/25 06:53:57;;;;;;;3.38;1.15;;;;;;;;;;4992295;28;20032;-40
2021/11/25 06:56:24;;;;;;;5.28;0.95;;;;;;;;;;4992390;28;20029;-40
2021/11/25 06:58:52;;;;;;;1.50;0.82;;;;;;;;;;4991474;28;20022;-40
2021/11/25 07:01:19;;;;;;;4.55;1.00;;;;;;;;;;4992352;28;20030;-41
2021/11/25 07:03:46;;;;;;;4.90;1.10;;;;;;;;;;4991307;28;20026;-40
2021/11/25 07:06:13;;;;;;;3.55;0.95;;;;;;;;;;4991896;28;20022;-40
2021/11/25 07:08:40;;;;;;;2.80;0.98;;;;;;;;;;4991476;28;20027;-40
2021/11/25 07:11:07;;;;;;;3.17;1.20;;;;;;;;;;4992407;28;20031;-40
2021/11/25 07:13:34;;;;;;;4.15;1.00;;;;;;;;;;4991987;28;20445;-40
2021/11/25 07:16:01;;;;;;;4.90;1.20;;;;;;;;;;4991648;28;20026;-41
2021/11/25 07:18:28;;;;;;;3.13;1.33;;;;;;;;;;4991422;28;20026;-40
2021/11/25 07:20:55;;;;;;;5.20;1.20;;;;;;;;;;4991676;28;20101;-41
2021/11/25 07:23:22;;;;;;;3.30;1.15;;;;;;;;;;4991451;28;20037;-40
2021/11/25 07:25:49;;;;;;;3.92;1.15;;;;;;;;;;4990531;28;20029;-40
2021/11/25 07:28:16;;;;;;;3.75;1.02;;;;;;;;;;4991836;28;20022;-40
2021/11/25 07:30:44;;;;;;;5.82;1.30;;;;;;;;;;4991867;28;20474;-40
2021/11/25 07:33:11;;;;;;;6.03;1.20;;;;;;;;;;4991887;28;20036;-41
2021/11/25 07:35:43;;;;;;;2.60;1.00;;;;;;;;;;4990745;28;20057;-40
2021/11/25 07:38:11;;;;;;;6.03;1.00;;;;;;;;;;4991833;28;20125;-40
2021/11/25 07:40:37;;;;;;;2.72;0.90;;;;;;;;;;4990113;28;20031;-41
2021/11/25 07:43:06;;;;;;;6.38;0.85;;;;;;;;;;4992074;28;20022;-40
2021/11/25 07:45:33;;;;;;;2.03;1.00;;;;;;;;;;4990569;28;20041;-41
2021/11/25 07:48:01;;;;;;;2.08;0.80;;;;;;;;;;4990650;28;20029;-40
2021/11/25 07:50:28;;;;;;;3.78;1.35;;;;;;;;;;4991116;28;20046;-40
2021/11/25 07:52:56;;;;;;;2.13;1.10;;;;;;;;;;4992029;28;20026;-41
2021/11/25 07:55:23;;;;;;;3.95;1.17;;;;;;;;;;4997259;28;20026;-40
2021/11/25 07:57:50;;;;;;;3.17;0.93;;;;;;;;;;4990832;28;20038;-41
2021/11/25 08:00:21;;;;;;;11.48;1.35;;;;;;;;;;4991164;28;20470;-41
2021/11/25 08:02:48;;;;;;;3.67;1.00;;;;;;;;;;4991395;28;20042;-40
2021/11/25 08:05:15;;;;;;;3.17;1.10;;;;;;;;;;4991247;28;20026;-40
2021/11/25 08:07:43;;;;;;;4.70;1.30;;;;;;;;;;4990883;28;20018;-41
2021/11/25 08:10:11;;;;;;;3.47;1.10;;;;;;;;;;4991038;28;20429;-41
2021/11/25 08:12:39;;;;;;;3.92;1.00;;;;;;;;;;4991345;28;20030;-42
2021/11/25 08:15:06;;;;;;;5.07;1.13;;;;;;;;;;4991023;28;20026;-40
2021/11/25 08:17:33;;;;;;;3.05;1.05;;;;;;;;;;4991189;28;20034;-41
2021/11/25 08:20:00;;;;;;;4.40;1.05;;;;;;;;;;4991449;28;20030;-40
2021/11/25 08:22:27;;;;;;;4.43;1.08;;;;;;;;;;4991111;28;20028;-40
2021/11/25 08:24:55;;;;;;;6.85;0.88;;;;;;;;;;4991420;28;20033;-40
2021/11/25 08:27:22;;;;;;;1.90;0.70;;;;;;;;;;4990170;28;20034;-40
2021/11/25 08:29:49;;;;;;;2.75;0.60;;;;;;;;;;4991215;28;20080;-40
2021/11/25 08:32:16;;;;;;;5.70;1.00;;;;;;;;;;4990783;28;20116;-41
2021/11/25 08:34:43;;;;;;;2.30;0.90;;;;;;;;;;4991590;28;20066;-40
2021/11/25 08:37:10;;;;;;;4.25;0.80;;;;;;;;;;5005277;28;20038;-40
2021/11/25 08:39:37;;;;;;;4.15;1.00;;;;;;;;;;4993884;28;20106;-41
2021/11/25 08:42:08;;;;;;;2.80;0.63;;;;;;;;;;4994318;28;20027;-40
2021/11/25 08:44:35;;;;;;;3.35;0.90;;;;;;;;;;4994791;28;20026;-41
2021/11/25 08:47:03;;;;;;;5.78;0.82;;;;;;;;;;4994290;28;20033;-40
2021/11/25 08:49:30;;;;;;;2.33;0.60;;;;;;;;;;4994271;28;20096;-40
2021/11/25 08:51:57;;;;;;;3.15;0.60;;;;;;;;;;4994262;28;20034;-40
2021/11/25 08:54:24;;;;;;;3.08;0.95;;;;;;;;;;4994588;28;20054;-41
2021/11/25 08:56:52;;;;;;;3.10;0.60;;;;;;;;;;4993943;28;20035;-40
2021/11/25 08:59:19;;;;;;;3.58;0.95;;;;;;;;;;4994123;28;20026;-41
2021/11/25 09:01:46;;;;;;;1.52;0.60;;;;;;;;;;4994131;28;20053;-40
2021/11/25 09:04:13;;;;;;;4.57;0.80;;;;;;;;;;4993975;28;20022;-41
2021/11/25 09:06:40;;;;;;;1.92;0.70;;;;;;;;;;5009673;28;20023;-41
2021/11/25 09:09:08;;;;;;;4.95;0.77;;;;;;;;;;4993792;28;20070;-41
2021/11/25 09:11:36;;;;;;;2.65;0.77;;;;;;;;;;4994420;28;20030;-40
2021/11/25 09:14:03;;;;;;;2.90;0.60;;;;;;;;;;4993893;28;20026;-40
2021/11/25 09:16:30;;;;;;;4.15;0.63;;;;;;;;;;4994554;28;20478;-40
2021/11/25 09:18:58;;;;;;;4.10;1.05;;;;;;;;;;4993998;28;20023;-40
2021/11/25 09:21:25;;;;;;;2.17;0.63;;;;;;;;;;4994014;28;20037;-40
2021/11/25 09:23:52;;;;;;;4.28;0.70;;;;;;;;;;4993908;28;20447;-41
2021/11/25 09:26:20;;;;;;;2.35;0.60;;;;;;;;;;4994291;28;20034;-41
2021/11/25 09:28:47;;;;;;;2.83;0.68;;;;;;;;;;4992683;28;20494;-40
2021/11/25 09:31:16;;;;;;;2.03;0.65;;;;;;;;;;4994260;28;20054;-41
2021/11/25 09:33:44;;;;;;;5.78;0.65;;;;;;;;;;4993668;28;20117;-40
2021/11/25 09:36:11;;;;;;;3.38;0.73;;;;;;;;;;4992831;28;20030;-41
2021/11/25 09:38:38;;;;;;;2.53;0.73;;;;;;;;;;4994113;28;20045;-40
2021/11/25 09:41:05;;;;;;;1.40;0.50;;;;;;;;;;4993673;28;20045;-41
2021/11/25 09:43:32;;;;;;;3.58;0.70;;;;;;;;;;4993708;28;20113;-40
2021/11/25 09:45:59;;;;;;;2.03;0.57;;;;;;;;;;4993619;28;20026;-40
2021/11/25 09:48:27;;;;;;;2.83;0.60;;;;;;;;;;4993041;28;20394;-40
2021/11/25 09:50:55;;;;;;;1.00;0.50;;;;;;;;;;4993127;28;20055;-40
2021/11/25 09:53:24;;;;;;;1.05;0.40;;;;;;;;;;4993272;28;20486;-41
2021/11/25 09:55:52;;;;;;;1.65;0.80;;;;;;;;;;4993109;28;20038;-41
2021/11/25 09:58:20;;;;;;;3.08;0.68;;;;;;;;;;4992590;28;20390;-40
2021/11/25 10:00:49;;;;;;;3.17;0.60;;;;;;;;;;4993175;28;20497;-40
2021/11/25 10:03:17;;;;;;;5.57;0.77;;;;;;;;;;4993066;28;20061;-41
2021/11/25 10:05:46;;;;;;;3.90;0.75;;;;;;;;;;4992643;28;20034;-40
2021/11/25 10:08:33;;;;;;;3.60;0.70;;;;;;;;;;4993521;28;20026;-40
2021/11/25 10:11:11;;;;;;;7.07;1.20;;;;;;;;;;4992899;28;20031;-41
2021/11/25 10:13:46;;;;;;;6.15;0.88;;;;;;;;;;4993322;28;20023;-41
2021/11/25 10:16:16;;;;;;;7.60;1.20;;;;;;;;;;5007880;28;20034;-40
2021/11/25 10:18:44;;;;;;;6.70;0.90;;;;;;;;;;4992769;28;20092;-40
2021/11/25 10:21:13;;;;;;;7.85;1.35;;;;;;;;;;4992649;28;20025;-41
2021/11/25 10:23:40;;;;;;;8.50;1.40;;;;;;;;;;4993057;28;20030;-40
2021/11/25 10:26:09;;;;;;;9.88;1.90;;;;;;;;;;4992699;28;20068;-40
2021/11/25 10:28:47;;;;;;;9.75;1.52;;;;;;;;;;4992102;28;20076;-41
2021/11/25 10:31:20;;;;;;;10.63;1.35;;;;;;;;;;4993015;28;20061;-40
2021/11/25 10:33:55;;;;;;;12.88;2.20;;;;;;;;;;4992801;28;20106;-40
2021/11/25 10:40:10;;;;;;;5.65;1.90;;;;;;;;;;4989117;28;20069;-40
2021/11/25 10:42:19;;;;;;;15.20;1.98;;;;;;;;;;4988759;28;20035;-40
2021/11/25 10:44:47;;;;;;;9.10;2.10;;;;;;;;;;4992259;28;20764;-39
2021/11/25 10:47:18;;;;;;;11.93;1.75;;;;;;;;;;5165858;22;20065;-40
2021/11/25 10:49:48;;;;;;;15.55;2.00;;;;;;;;;;5031895;28;20408;-39
2021/11/25 10:52:21;;;;;;;7.03;1.70;;;;;;;;;;5031683;28;20032;-39
2021/11/25 10:54:53;;;;;;;20.15;2.25;;;;;;;;;;5030516;28;20105;-40
2021/11/25 10:57:21;;;;;;;11.90;2.33;;;;;;;;;;5031796;28;20041;-40
2021/11/25 10:59:49;;;;;;;12.05;2.22;;;;;;;;;;5031062;28;20025;-39
2021/11/25 11:02:22;;;;;;;12.77;2.38;;;;;;;;;;5031156;28;20477;-40
2021/11/25 11:04:50;;;;;;;9.52;1.90;;;;;;;;;;5030576;28;20077;-40
2021/11/25 11:07:28;;;;;;;12.27;2.25;;;;;;;;;;5031726;28;20017;-39
2021/11/25 11:09:55;;;;;;;12.13;2.50;;;;;;;;;;5031553;28;20049;-40
2021/11/25 11:12:31;;;;;;;14.63;2.00;;;;;;;;;;5030269;28;20030;-41
2021/11/25 11:15:13;;;;;;;14.00;1.60;;;;;;;;;;5031003;28;20034;-41
2021/11/25 11:18:00;;;;;;;9.57;1.65;;;;;;;;;;5031882;28;20053;-41
2021/11/25 11:20:35;;;;;;;9.13;1.80;;;;;;;;;;5031172;28;20033;-41
2021/11/25 11:23:03;;;;;;;13.45;1.55;;;;;;;;;;5030412;28;20700;-43
2021/11/25 11:25:33;;;;;;;12.88;1.88;;;;;;;;;;5030437;28;20022;-41
2021/11/25 11:28:01;;;;;;;15.35;1.75;;;;;;;;;;5031385;28;20043;-41
2021/11/25 11:30:28;;;;;;;12.05;1.90;;;;;;;;;;5030932;28;20017;-41
2021/11/25 11:32:56;;;;;;;6.65;1.70;;;;;;;;;;5030586;28;20099;-40
2021/11/25 11:35:24;;;;;;;7.45;1.55;;;;;;;;;;5030682;28;20045;-41
2021/11/25 11:37:55;;;;;;;8.48;1.90;;;;;;;;;;5031505;28;20434;-41
2021/11/25 11:40:23;;;;;;;9.35;1.50;;;;;;;;;;5030251;28;20112;-40
2021/11/25 11:42:51;;;;;;;9.70;1.50;;;;;;;;;;5030908;28;20139;-41
2021/11/25 11:45:20;;;;;;;7.82;1.38;;;;;;;;;;5030156;28;20020;-41
2021/11/25 11:47:53;;;;;;;16.48;1.90;;;;;;;;;;5030181;28;20060;-41
2021/11/25 11:50:27;;;;;;;10.48;1.60;;;;;;;;;;5031245;28;20033;-41
2021/11/25 11:52:59;;;;;;;8.15;1.70;;;;;;;;;;5030730;28;20032;-41
2021/11/25 11:55:35;;;;;;;10.02;1.17;;;;;;;;;;5029357;28;20037;-40
2021/11/25 11:58:21;;;;;;;4.70;1.25;;;;;;;;;;5030115;28;20497;-41
2021/11/25 12:00:48;;;;;;;5.32;1.30;;;;;;;;;;5030320;28;20064;-40
2021/11/25 12:03:32;;;;;;;8.55;1.30;;;;;;;;;;5197991;22;20425;-41
2021/11/25 12:05:59;;;;;;;5.88;1.00;;;;;;;;;;5024316;28;20034;-41
2021/11/25 12:08:28;;;;;;;13.23;1.27;;;;;;;;;;5029862;28;20426;-41
2021/11/25 12:11:05;;;;;;;3.90;1.20;;;;;;;;;;5017497;28;20036;-41
2021/11/25 12:13:39;;;;;;;9.63;1.50;;;;;;;;;;5018533;28;20034;-41
2021/11/25 12:16:18;;;;;;;12.20;1.50;;;;;;;;;;5030770;28;20017;-42
2021/11/25 12:19:05;;;;;;;9.90;1.50;;;;;;;;;;5033447;28;20034;-41
2021/11/25 12:21:41;;;;;;;8.73;1.33;;;;;;;;;;5031836;28;20025;-41
2021/11/25 12:24:16;;;;;;;21.15;2.33;;;;;;;;;;5032986;28;20029;-40
2021/11/25 12:27:12;;;;;;;10.00;1.35;;;;;;;;;;5033589;28;20030;-40
2021/11/25 12:29:39;;;;;;;17.95;1.27;;;;;;;;;;5032464;28;20040;-40
2021/11/25 12:32:27;;;;;;;7.78;1.15;;;;;;;;;;5024337;28;20029;-39
2021/11/25 12:34:55;;;;;;;5.30;1.10;;;;;;;;;;5012690;28;20026;-41
2021/11/25 12:37:41;;;;;;;5.40;1.20;;;;;;;;;;5013144;28;20033;-40
2021/11/25 12:40:27;;;;;;;7.22;1.23;;;;;;;;;;5012878;28;20021;-40
2021/11/25 12:42:57;;;;;;;10.23;1.13;;;;;;;;;;5011618;28;20017;-40
2021/11/25 12:45:26;;;;;;;8.13;1.23;;;;;;;;;;5013183;28;20014;-39
2021/11/25 12:48:19;;;;;;;18.42;1.17;;;;;;;;;;5029556;28;20028;-39
2021/11/25 12:50:50;;;;;;;6.93;1.00;;;;;;;;;;5031341;28;20120;-41
2021/11/25 12:53:23;;;;;;;4.72;0.90;;;;;;;;;;5031798;28;20112;-38
2021/11/25 12:56:09;;;;;;;7.93;1.15;;;;;;;;;;5032167;28;20025;-41
2021/11/25 12:59:11;;;;;;;3.13;0.90;;;;;;;;;;5032814;28;20037;-39
2021/11/25 13:01:40;;;;;;;5.90;0.87;;;;;;;;;;4990470;28;20035;-39
2021/11/25 13:04:10;;;;;;;5.20;1.00;;;;;;;;;;5024891;28;20299;-38
2021/11/25 13:06:39;;;;;;;5.88;0.90;;;;;;;;;;5032989;28;20036;-39
2021/11/25 13:09:11;;;;;;;5.90;0.80;;;;;;;;;;5033168;28;20032;-40
2021/11/25 13:11:39;;;;;;;8.80;1.00;;;;;;;;;;5030833;28;20022;-40
2021/11/25 13:14:10;;;;;;;7.85;1.17;;;;;;;;;;4999152;28;20022;-40
2021/11/25 13:16:45;;;;;;;6.82;1.30;;;;;;;;;;5003766;28;20041;-42
2021/11/25 13:19:12;;;;;;;10.73;1.20;;;;;;;;;;5000305;28;20026;-42
2021/11/25 13:21:41;;;;;;;12.65;1.30;;;;;;;;;;5000474;28;20022;-41
2021/11/25 13:24:08;;;;;;;7.82;1.00;;;;;;;;;;5002888;28;20022;-42
2021/11/25 13:26:42;;;;;;;10.43;1.00;;;;;;;;;;5004786;28;20104;-43
2021/11/25 13:29:09;;;;;;;9.45;1.00;;;;;;;;;;5002167;28;20025;-43
2021/11/25 13:31:37;;;;;;;9.27;1.05;;;;;;;;;;5001990;28;20057;-42
2021/11/25 13:34:05;;;;;;;8.20;1.27;;;;;;;;;;5002211;28;20025;-43
2021/11/25 13:36:43;;;;;;;9.02;1.10;;;;;;;;;;5007275;28;20809;-43
2021/11/25 13:39:15;;;;;;;10.30;1.00;;;;;;;;;;4995035;28;20046;-43
2021/11/25 13:41:46;;;;;;;13.05;1.23;;;;;;;;;;4957800;28;20131;-42
2021/11/25 13:44:13;;;;;;;4.85;0.70;;;;;;;;;;5002685;28;20107;-41
2021/11/25 13:46:40;;;;;;;5.35;0.90;;;;;;;;;;5006395;28;20382;-41
2021/11/25 13:49:08;;;;;;;12.02;0.90;;;;;;;;;;5001282;28;20113;-41
2021/11/25 13:51:35;;;;;;;8.05;1.08;;;;;;;;;;5022802;28;20030;-42
2021/11/25 13:54:08;;;;;;;15.00;1.20;;;;;;;;;;5006556;28;20018;-44
2021/11/25 13:56:36;;;;;;;8.18;1.13;;;;;;;;;;5010319;28;20444;-44
2021/11/25 13:59:04;;;;;;;7.72;1.00;;;;;;;;;;5003932;28;20022;-44
2021/11/25 14:01:32;;;;;;;7.63;0.85;;;;;;;;;;5000157;28;20389;-45
2021/11/25 14:04:01;;;;;;;8.63;0.98;;;;;;;;;;5003540;28;20046;-43
2021/11/25 14:06:29;;;;;;;7.05;0.65;;;;;;;;;;5012906;28;20022;-43
2021/11/25 14:09:07;;;;;;;8.10;0.73;;;;;;;;;;5003436;28;20028;-43
2021/11/25 14:11:35;;;;;;;4.28;0.93;;;;;;;;;;5002475;28;20036;-43
2021/11/25 14:14:03;;;;;;;7.68;1.17;;;;;;;;;;5002285;28;20061;-40
2021/11/25 14:16:30;;;;;;;4.85;0.95;;;;;;;;;;5009385;28;20091;-43
2021/11/25 14:19:11;;;;;;;11.52;1.17;;;;;;;;;;5005341;28;20776;-43
2021/11/25 14:21:42;;;;;;;6.10;1.00;;;;;;;;;;5011996;28;20478;-42
2021/11/25 14:24:10;;;;;;;8.48;1.20;;;;;;;;;;5008044;28;20030;-42
2021/11/25 14:32:22;;;;;;;8.55;1.10;;;;;;;;;;5006186;28;20168;-42
2021/11/25 14:34:49;;;;;;;7.00;0.80;;;;;;;;;;5005162;28;20465;-45
2021/11/25 14:37:21;;;;;;;7.28;0.98;;;;;;;;;;5010030;28;20044;-44
2021/11/25 14:39:48;;;;;;;4.38;0.80;;;;;;;;;;5009758;28;20026;-44
2021/11/25 14:42:20;;;;;;;5.53;0.68;;;;;;;;;;5013573;28;20036;-41
2021/11/25 14:44:48;;;;;;;3.60;0.68;;;;;;;;;;5008796;28;20034;-42
2021/11/25 14:47:17;;;;;;;5.25;0.80;;;;;;;;;;5010707;28;20037;-43
2021/11/25 14:49:46;;;;;;;4.85;0.90;;;;;;;;;;5011205;28;20393;-45
2021/11/25 14:52:18;;;;;;;6.68;1.08;;;;;;;;;;5009081;28;20122;-41
2021/11/25 14:54:44;;;;;;;;;;;;;;;;;;5007724;28;20109;-42
2021/11/25 14:57:24;;;;;;;5.00;0.63;;;;;;;;;;5007674;28;19921;-43
2021/11/25 15:00:08;;;;;;;8.63;0.82;;;;;;;;;;5009035;28;20449;-42
2021/11/25 15:02:43;;;;;;;3.78;0.80;;;;;;;;;;5009707;28;20022;-42